sensor_id;sensor_type;location;lat;lon;timestamp;temperature;humidity
38500;DHT22;24269;51.894;4.622;2023-01-28T00:01:07;3.60;99.90
38500;DHT22;24269;51.894;4.622;2023-01-28T00:03:32;3.70;99.90
38500;DHT22;24269;51.894;4.622;2023-01-28T00:06:06;3.60;99.90
38500;DHT22;24269;51.894;4.622;2023-01-28T00:08:32;3.60;99.90
38500;DHT22;24269;51.894;4.622;2023-01-28T00:10:59;3.60;99.90
38500;DHT22;24269;51.894;4.622;2023-01-28T00:13:25;3.60;99.90
38500;DHT22;24269;51.894;4.622;2023-01-28T00:15:59;3.60;99.90
38500;DHT22;24269;51.894;4.622;2023-01-28T00:18:26;3.60;99.90
38500;DHT22;24269;51.894;4.622;2023-01-28T00:21:11;3.60;99.90
38500;DHT22;24269;51.894;4.622;2023-01-28T00:23:39;3.60;99.90
38500;DHT22;24269;51.894;4.622;2023-01-28T00:26:07;3.60;99.90
38500;DHT22;24269;51.894;4.622;2023-01-28T00:28:32;3.60;99.90
38500;DHT22;24269;51.894;4.622;2023-01-28T00:31:05;3.50;99.90
38500;DHT22;24269;51.894;4.622;2023-01-28T00:33:31;3.50;99.90
38500;DHT22;24269;51.894;4.622;2023-01-28T00:36:01;3.50;99.90
38500;DHT22;24269;51.894;4.622;2023-01-28T00:38:27;3.50;99.90
38500;DHT22;24269;51.894;4.622;2023-01-28T00:40:53;3.50;99.90
38500;DHT22;24269;51.894;4.622;2023-01-28T00:43:19;3.60;99.90
38500;DHT22;24269;51.894;4.622;2023-01-28T00:45:45;3.60;99.90
38500;DHT22;24269;51.894;4.622;2023-01-28T00:48:10;3.60;99.90
38500;DHT22;24269;51.894;4.622;2023-01-28T00:50:36;3.50;99.90
38500;DHT22;24269;51.894;4.622;2023-01-28T00:53:03;3.50;99.90
38500;DHT22;24269;51.894;4.622;2023-01-28T00:55:29;3.50;99.90
38500;DHT22;24269;51.894;4.622;2023-01-28T00:57:54;3.50;99.90
38500;DHT22;24269;51.894;4.622;2023-01-28T01:00:20;3.50;99.90
38500;DHT22;24269;51.894;4.622;2023-01-28T01:02:50;3.50;99.90
38500;DHT22;24269;51.894;4.622;2023-01-28T01:05:16;3.50;99.90
38500;DHT22;24269;51.894;4.622;2023-01-28T01:07:42;3.50;99.90
38500;DHT22;24269;51.894;4.622;2023-01-28T01:10:13;3.50;99.90
38500;DHT22;24269;51.894;4.622;2023-01-28T01:12:39;3.50;99.90
38500;DHT22;24269;51.894;4.622;2023-01-28T01:15:07;3.50;99.90
38500;DHT22;24269;51.894;4.622;2023-01-28T01:17:33;3.50;99.90
38500;DHT22;24269;51.894;4.622;2023-01-28T01:20:03;3.50;99.90
38500;DHT22;24269;51.894;4.622;2023-01-28T01:22:31;3.50;99.90
38500;DHT22;24269;51.894;4.622;2023-01-28T01:24:56;3.50;99.90
38500;DHT22;24269;51.894;4.622;2023-01-28T01:27:22;3.50;99.90
38500;DHT22;24269;51.894;4.622;2023-01-28T01:29:48;3.50;99.90
38500;DHT22;24269;51.894;4.622;2023-01-28T01:32:13;3.50;99.90
38500;DHT22;24269;51.894;4.622;2023-01-28T01:34:39;3.50;99.90
38500;DHT22;24269;51.894;4.622;2023-01-28T01:37:04;3.40;99.90
38500;DHT22;24269;51.894;4.622;2023-01-28T01:39:33;3.40;99.90
38500;DHT22;24269;51.894;4.622;2023-01-28T01:41:58;3.40;99.90
38500;DHT22;24269;51.894;4.622;2023-01-28T01:47:15;3.40;99.90
38500;DHT22;24269;51.894;4.622;2023-01-28T01:49:41;3.40;99.90
38500;DHT22;24269;51.894;4.622;2023-01-28T01:52:12;3.40;99.90
38500;DHT22;24269;51.894;4.622;2023-01-28T01:54:42;3.40;99.90
38500;DHT22;24269;51.894;4.622;2023-01-28T01:57:13;3.40;99.90
38500;DHT22;24269;51.894;4.622;2023-01-28T01:59:41;3.40;99.90
38500;DHT22;24269;51.894;4.622;2023-01-28T02:02:08;3.40;99.90
38500;DHT22;24269;51.894;4.622;2023-01-28T02:04:39;3.40;99.90
38500;DHT22;24269;51.894;4.622;2023-01-28T02:07:05;3.40;99.90
38500;DHT22;24269;51.894;4.622;2023-01-28T02:09:34;3.30;99.90
38500;DHT22;24269;51.894;4.622;2023-01-28T02:12:35;3.30;99.90
38500;DHT22;24269;51.894;4.622;2023-01-28T02:15:10;3.40;99.90
38500;DHT22;24269;51.894;4.622;2023-01-28T02:17:37;3.40;99.90
38500;DHT22;24269;51.894;4.622;2023-01-28T02:20:05;3.40;99.90
38500;DHT22;24269;51.894;4.622;2023-01-28T02:25:40;3.40;99.90
38500;DHT22;24269;51.894;4.622;2023-01-28T02:28:53;3.40;99.90
38500;DHT22;24269;51.894;4.622;2023-01-28T02:34:02;3.40;99.90
38500;DHT22;24269;51.894;4.622;2023-01-28T02:37:03;3.30;99.90
38500;DHT22;24269;51.894;4.622;2023-01-28T02:39:39;3.30;99.90
38500;DHT22;24269;51.894;4.622;2023-01-28T02:42:09;3.30;99.90
38500;DHT22;24269;51.894;4.622;2023-01-28T02:44:37;3.30;99.90
38500;DHT22;24269;51.894;4.622;2023-01-28T02:47:09;3.30;99.90
38500;DHT22;24269;51.894;4.622;2023-01-28T02:49:55;3.30;99.90
38500;DHT22;24269;51.894;4.622;2023-01-28T02:52:28;3.30;99.90
38500;DHT22;24269;51.894;4.622;2023-01-28T02:57:58;3.30;99.90
38500;DHT22;24269;51.894;4.622;2023-01-28T03:00:26;3.30;99.90
38500;DHT22;24269;51.894;4.622;2023-01-28T03:03:26;3.30;99.90
38500;DHT22;24269;51.894;4.622;2023-01-28T03:05:57;3.30;99.90
38500;DHT22;24269;51.894;4.622;2023-01-28T03:08:50;3.30;99.90
38500;DHT22;24269;51.894;4.622;2023-01-28T03:11:39;3.30;99.90
38500;DHT22;24269;51.894;4.622;2023-01-28T03:14:25;3.30;99.90
38500;DHT22;24269;51.894;4.622;2023-01-28T03:17:32;3.30;99.90
38500;DHT22;24269;51.894;4.622;2023-01-28T03:20:17;3.30;99.90
38500;DHT22;24269;51.894;4.622;2023-01-28T03:23:08;3.30;99.90
38500;DHT22;24269;51.894;4.622;2023-01-28T03:25:55;3.30;99.90
38500;DHT22;24269;51.894;4.622;2023-01-28T03:28:42;3.30;99.90
38500;DHT22;24269;51.894;4.622;2023-01-28T03:31:28;3.30;99.90
38500;DHT22;24269;51.894;4.622;2023-01-28T03:34:12;3.30;99.90
38500;DHT22;24269;51.894;4.622;2023-01-28T03:36:57;3.20;99.90
38500;DHT22;24269;51.894;4.622;2023-01-28T03:39:26;3.30;99.90
38500;DHT22;24269;51.894;4.622;2023-01-28T03:44:24;3.30;99.90
38500;DHT22;24269;51.894;4.622;2023-01-28T03:47:10;3.30;99.90
38500;DHT22;24269;51.894;4.622;2023-01-28T03:49:40;3.30;99.90
38500;DHT22;24269;51.894;4.622;2023-01-28T03:52:07;3.30;99.90
38500;DHT22;24269;51.894;4.622;2023-01-28T03:54:32;3.20;99.90
38500;DHT22;24269;51.894;4.622;2023-01-28T03:56:58;3.20;99.90
38500;DHT22;24269;51.894;4.622;2023-01-28T03:59:23;3.30;99.90
38500;DHT22;24269;51.894;4.622;2023-01-28T04:01:49;3.30;99.90
38500;DHT22;24269;51.894;4.622;2023-01-28T04:04:15;3.30;99.90
38500;DHT22;24269;51.894;4.622;2023-01-28T04:06:51;3.40;99.90
38500;DHT22;24269;51.894;4.622;2023-01-28T04:09:17;3.30;99.90
38500;DHT22;24269;51.894;4.622;2023-01-28T04:11:43;3.30;99.90
38500;DHT22;24269;51.894;4.622;2023-01-28T04:14:09;3.30;99.90
38500;DHT22;24269;51.894;4.622;2023-01-28T04:16:34;3.30;99.90
38500;DHT22;24269;51.894;4.622;2023-01-28T04:19:00;3.30;99.90
38500;DHT22;24269;51.894;4.622;2023-01-28T04:21:26;3.30;99.90
38500;DHT22;24269;51.894;4.622;2023-01-28T04:23:51;3.30;99.90
38500;DHT22;24269;51.894;4.622;2023-01-28T04:26:17;3.30;99.90
38500;DHT22;24269;51.894;4.622;2023-01-28T04:28:42;3.30;99.90
38500;DHT22;24269;51.894;4.622;2023-01-28T04:31:08;3.30;99.90
38500;DHT22;24269;51.894;4.622;2023-01-28T04:33:34;3.30;99.90
38500;DHT22;24269;51.894;4.622;2023-01-28T04:35:59;3.20;99.90
38500;DHT22;24269;51.894;4.622;2023-01-28T04:38:25;3.20;99.90
38500;DHT22;24269;51.894;4.622;2023-01-28T04:40:52;3.20;99.90
38500;DHT22;24269;51.894;4.622;2023-01-28T04:43:17;3.20;99.90
38500;DHT22;24269;51.894;4.622;2023-01-28T04:45:47;3.20;99.90
38500;DHT22;24269;51.894;4.622;2023-01-28T04:48:13;3.20;99.90
38500;DHT22;24269;51.894;4.622;2023-01-28T04:50:39;3.20;99.90
38500;DHT22;24269;51.894;4.622;2023-01-28T04:53:06;3.20;99.90
38500;DHT22;24269;51.894;4.622;2023-01-28T04:55:32;3.20;99.90
38500;DHT22;24269;51.894;4.622;2023-01-28T04:57:57;3.20;99.90
38500;DHT22;24269;51.894;4.622;2023-01-28T05:00:23;3.20;99.90
38500;DHT22;24269;51.894;4.622;2023-01-28T05:02:49;3.20;99.90
38500;DHT22;24269;51.894;4.622;2023-01-28T05:05:14;3.30;99.90
38500;DHT22;24269;51.894;4.622;2023-01-28T05:07:40;3.20;99.90
38500;DHT22;24269;51.894;4.622;2023-01-28T05:10:06;3.20;99.90
38500;DHT22;24269;51.894;4.622;2023-01-28T05:12:31;3.20;99.90
38500;DHT22;24269;51.894;4.622;2023-01-28T05:14:58;3.20;99.90
38500;DHT22;24269;51.894;4.622;2023-01-28T05:17:27;3.20;99.90
38500;DHT22;24269;51.894;4.622;2023-01-28T05:19:53;3.20;99.90
38500;DHT22;24269;51.894;4.622;2023-01-28T05:22:19;3.20;99.90
38500;DHT22;24269;51.894;4.622;2023-01-28T05:24:44;3.20;99.90
38500;DHT22;24269;51.894;4.622;2023-01-28T05:27:10;3.10;99.90
38500;DHT22;24269;51.894;4.622;2023-01-28T05:29:36;3.10;99.90
38500;DHT22;24269;51.894;4.622;2023-01-28T05:32:01;3.10;99.90
38500;DHT22;24269;51.894;4.622;2023-01-28T05:34:27;3.10;99.90
38500;DHT22;24269;51.894;4.622;2023-01-28T05:36:53;3.10;99.90
38500;DHT22;24269;51.894;4.622;2023-01-28T05:39:18;3.10;99.90
38500;DHT22;24269;51.894;4.622;2023-01-28T05:41:44;3.10;99.90
38500;DHT22;24269;51.894;4.622;2023-01-28T05:44:09;3.00;99.90
38500;DHT22;24269;51.894;4.622;2023-01-28T05:46:35;3.00;99.90
38500;DHT22;24269;51.894;4.622;2023-01-28T05:49:01;3.00;99.90
38500;DHT22;24269;51.894;4.622;2023-01-28T05:51:26;3.00;99.90
38500;DHT22;24269;51.894;4.622;2023-01-28T05:53:52;3.00;99.90
38500;DHT22;24269;51.894;4.622;2023-01-28T05:56:17;3.00;99.90
38500;DHT22;24269;51.894;4.622;2023-01-28T05:58:43;3.10;99.90
38500;DHT22;24269;51.894;4.622;2023-01-28T06:01:09;3.00;99.90
38500;DHT22;24269;51.894;4.622;2023-01-28T06:03:34;3.00;99.90
38500;DHT22;24269;51.894;4.622;2023-01-28T06:06:00;3.00;99.90
38500;DHT22;24269;51.894;4.622;2023-01-28T06:08:26;3.00;99.90
38500;DHT22;24269;51.894;4.622;2023-01-28T06:10:51;3.00;99.90
38500;DHT22;24269;51.894;4.622;2023-01-28T06:13:17;3.00;99.90
38500;DHT22;24269;51.894;4.622;2023-01-28T06:15:43;3.00;99.90
38500;DHT22;24269;51.894;4.622;2023-01-28T06:18:08;3.00;99.90
38500;DHT22;24269;51.894;4.622;2023-01-28T06:20:34;3.00;99.90
38500;DHT22;24269;51.894;4.622;2023-01-28T06:22:59;3.00;99.90
38500;DHT22;24269;51.894;4.622;2023-01-28T06:25:25;3.00;99.90
38500;DHT22;24269;51.894;4.622;2023-01-28T06:27:51;3.00;99.90
38500;DHT22;24269;51.894;4.622;2023-01-28T06:30:16;3.00;99.90
38500;DHT22;24269;51.894;4.622;2023-01-28T06:32:42;3.00;99.90
38500;DHT22;24269;51.894;4.622;2023-01-28T06:35:09;3.00;99.90
38500;DHT22;24269;51.894;4.622;2023-01-28T06:37:35;3.00;99.90
38500;DHT22;24269;51.894;4.622;2023-01-28T06:40:01;3.00;99.90
38500;DHT22;24269;51.894;4.622;2023-01-28T06:42:27;3.00;99.90
38500;DHT22;24269;51.894;4.622;2023-01-28T06:44:52;3.00;99.90
38500;DHT22;24269;51.894;4.622;2023-01-28T06:47:18;2.90;99.90
38500;DHT22;24269;51.894;4.622;2023-01-28T06:49:43;2.90;99.90
38500;DHT22;24269;51.894;4.622;2023-01-28T06:52:09;3.00;99.90
38500;DHT22;24269;51.894;4.622;2023-01-28T06:54:35;2.90;99.90
38500;DHT22;24269;51.894;4.622;2023-01-28T06:57:00;2.90;99.90
38500;DHT22;24269;51.894;4.622;2023-01-28T06:59:26;2.90;99.90
38500;DHT22;24269;51.894;4.622;2023-01-28T07:01:51;2.90;99.90
38500;DHT22;24269;51.894;4.622;2023-01-28T07:04:17;2.90;99.90
38500;DHT22;24269;51.894;4.622;2023-01-28T07:06:42;2.90;99.90
38500;DHT22;24269;51.894;4.622;2023-01-28T07:09:08;2.90;99.90
38500;DHT22;24269;51.894;4.622;2023-01-28T07:11:34;2.90;99.90
38500;DHT22;24269;51.894;4.622;2023-01-28T07:13:59;2.90;99.90
38500;DHT22;24269;51.894;4.622;2023-01-28T07:16:25;2.90;99.90
38500;DHT22;24269;51.894;4.622;2023-01-28T07:18:51;2.90;99.90
38500;DHT22;24269;51.894;4.622;2023-01-28T07:21:16;2.90;99.90
38500;DHT22;24269;51.894;4.622;2023-01-28T07:23:42;2.90;99.90
38500;DHT22;24269;51.894;4.622;2023-01-28T07:26:07;2.90;99.90
38500;DHT22;24269;51.894;4.622;2023-01-28T07:28:33;2.90;99.90
38500;DHT22;24269;51.894;4.622;2023-01-28T07:30:59;3.00;99.90
38500;DHT22;24269;51.894;4.622;2023-01-28T07:33:24;3.00;99.90
38500;DHT22;24269;51.894;4.622;2023-01-28T07:35:50;2.90;99.90
38500;DHT22;24269;51.894;4.622;2023-01-28T07:38:15;2.90;99.90
38500;DHT22;24269;51.894;4.622;2023-01-28T07:40:41;3.00;99.90
38500;DHT22;24269;51.894;4.622;2023-01-28T07:43:08;3.00;99.90
38500;DHT22;24269;51.894;4.622;2023-01-28T07:45:34;3.00;99.90
38500;DHT22;24269;51.894;4.622;2023-01-28T07:48:02;3.00;99.90
38500;DHT22;24269;51.894;4.622;2023-01-28T07:50:30;3.00;99.90
38500;DHT22;24269;51.894;4.622;2023-01-28T07:52:56;3.00;99.90
38500;DHT22;24269;51.894;4.622;2023-01-28T07:55:22;3.00;99.90
38500;DHT22;24269;51.894;4.622;2023-01-28T07:57:53;3.00;99.90
38500;DHT22;24269;51.894;4.622;2023-01-28T08:00:20;2.90;99.90
38500;DHT22;24269;51.894;4.622;2023-01-28T08:02:46;2.90;99.90
38500;DHT22;24269;51.894;4.622;2023-01-28T08:05:17;2.80;99.90
38500;DHT22;24269;51.894;4.622;2023-01-28T08:07:44;2.80;99.90
38500;DHT22;24269;51.894;4.622;2023-01-28T08:10:11;2.70;99.90
38500;DHT22;24269;51.894;4.622;2023-01-28T08:12:38;2.70;99.90
38500;DHT22;24269;51.894;4.622;2023-01-28T08:15:04;2.70;99.90
38500;DHT22;24269;51.894;4.622;2023-01-28T08:17:30;2.70;99.90
38500;DHT22;24269;51.894;4.622;2023-01-28T08:19:56;2.70;99.90
38500;DHT22;24269;51.894;4.622;2023-01-28T08:22:25;2.80;99.90
38500;DHT22;24269;51.894;4.622;2023-01-28T08:24:51;2.80;99.90
38500;DHT22;24269;51.894;4.622;2023-01-28T08:27:16;2.80;99.90
38500;DHT22;24269;51.894;4.622;2023-01-28T08:29:42;2.80;99.90
38500;DHT22;24269;51.894;4.622;2023-01-28T08:32:09;2.90;99.90
38500;DHT22;24269;51.894;4.622;2023-01-28T08:34:34;2.90;99.90
38500;DHT22;24269;51.894;4.622;2023-01-28T08:37:00;2.90;99.90
38500;DHT22;24269;51.894;4.622;2023-01-28T08:39:26;2.90;99.90
38500;DHT22;24269;51.894;4.622;2023-01-28T08:41:51;2.90;99.90
38500;DHT22;24269;51.894;4.622;2023-01-28T08:44:17;2.90;99.90
38500;DHT22;24269;51.894;4.622;2023-01-28T08:46:42;3.00;99.90
38500;DHT22;24269;51.894;4.622;2023-01-28T08:49:08;3.00;99.90
38500;DHT22;24269;51.894;4.622;2023-01-28T08:51:34;3.10;99.90
38500;DHT22;24269;51.894;4.622;2023-01-28T08:53:59;3.10;99.90
38500;DHT22;24269;51.894;4.622;2023-01-28T08:56:25;3.10;99.90
38500;DHT22;24269;51.894;4.622;2023-01-28T08:58:51;3.20;99.90
38500;DHT22;24269;51.894;4.622;2023-01-28T09:01:17;3.20;99.90
38500;DHT22;24269;51.894;4.622;2023-01-28T09:03:42;3.30;99.90
38500;DHT22;24269;51.894;4.622;2023-01-28T09:06:08;3.30;99.90
38500;DHT22;24269;51.894;4.622;2023-01-28T09:08:33;3.40;99.90
38500;DHT22;24269;51.894;4.622;2023-01-28T09:10:59;3.50;99.90
38500;DHT22;24269;51.894;4.622;2023-01-28T09:13:25;3.60;99.90
38500;DHT22;24269;51.894;4.622;2023-01-28T09:15:51;3.60;99.90
38500;DHT22;24269;51.894;4.622;2023-01-28T09:18:17;3.50;99.90
38500;DHT22;24269;51.894;4.622;2023-01-28T09:20:43;3.50;99.90
38500;DHT22;24269;51.894;4.622;2023-01-28T09:23:09;3.60;99.90
38500;DHT22;24269;51.894;4.622;2023-01-28T09:25:34;3.70;99.90
38500;DHT22;24269;51.894;4.622;2023-01-28T09:28:01;3.70;99.90
38500;DHT22;24269;51.894;4.622;2023-01-28T09:30:27;3.70;99.90
38500;DHT22;24269;51.894;4.622;2023-01-28T09:32:54;3.70;99.90
38500;DHT22;24269;51.894;4.622;2023-01-28T09:35:20;3.80;99.90
38500;DHT22;24269;51.894;4.622;2023-01-28T09:37:46;3.80;99.90
38500;DHT22;24269;51.894;4.622;2023-01-28T09:40:35;3.80;99.90
38500;DHT22;24269;51.894;4.622;2023-01-28T09:45:54;3.90;99.90
38500;DHT22;24269;51.894;4.622;2023-01-28T09:48:30;3.90;99.90
38500;DHT22;24269;51.894;4.622;2023-01-28T09:50:59;4.00;99.90
38500;DHT22;24269;51.894;4.622;2023-01-28T09:53:31;4.00;99.90
38500;DHT22;24269;51.894;4.622;2023-01-28T09:56:08;4.10;99.90
38500;DHT22;24269;51.894;4.622;2023-01-28T09:58:35;4.00;99.90
38500;DHT22;24269;51.894;4.622;2023-01-28T10:09:16;4.20;99.90
38500;DHT22;24269;51.894;4.622;2023-01-28T10:17:31;4.30;99.90
38500;DHT22;24269;51.894;4.622;2023-01-28T10:20:06;4.50;99.90
38500;DHT22;24269;51.894;4.622;2023-01-28T10:22:40;4.60;99.90
38500;DHT22;24269;51.894;4.622;2023-01-28T10:25:24;4.80;99.90
38500;DHT22;24269;51.894;4.622;2023-01-28T10:27:50;5.30;99.90
38500;DHT22;24269;51.894;4.622;2023-01-28T10:30:18;5.80;99.90
38500;DHT22;24269;51.894;4.622;2023-01-28T10:33:03;5.90;99.90
38500;DHT22;24269;51.894;4.622;2023-01-28T10:35:34;6.10;99.90
38500;DHT22;24269;51.894;4.622;2023-01-28T10:38:04;6.20;99.90
38500;DHT22;24269;51.894;4.622;2023-01-28T10:40:32;6.40;99.90
38500;DHT22;24269;51.894;4.622;2023-01-28T10:42:57;6.60;99.90
38500;DHT22;24269;51.894;4.622;2023-01-28T10:45:27;6.80;99.90
38500;DHT22;24269;51.894;4.622;2023-01-28T10:50:30;7.10;99.90
38500;DHT22;24269;51.894;4.622;2023-01-28T10:53:01;6.70;99.90
38500;DHT22;24269;51.894;4.622;2023-01-28T10:55:29;6.70;99.90
38500;DHT22;24269;51.894;4.622;2023-01-28T10:57:57;6.60;99.90
38500;DHT22;24269;51.894;4.622;2023-01-28T11:00:27;6.40;99.90
38500;DHT22;24269;51.894;4.622;2023-01-28T11:02:55;6.30;99.90
38500;DHT22;24269;51.894;4.622;2023-01-28T11:05:26;6.50;99.90
38500;DHT22;24269;51.894;4.622;2023-01-28T11:08:12;6.70;99.90
38500;DHT22;24269;51.894;4.622;2023-01-28T11:10:39;6.80;99.90
38500;DHT22;24269;51.894;4.622;2023-01-28T11:13:15;6.80;99.90
38500;DHT22;24269;51.894;4.622;2023-01-28T11:15:58;6.70;99.90
38500;DHT22;24269;51.894;4.622;2023-01-28T11:18:40;6.60;99.90
38500;DHT22;24269;51.894;4.622;2023-01-28T11:21:19;6.90;99.90
38500;DHT22;24269;51.894;4.622;2023-01-28T11:23:58;7.30;99.90
38500;DHT22;24269;51.894;4.622;2023-01-28T11:26:31;7.40;99.90
38500;DHT22;24269;51.894;4.622;2023-01-28T11:28:57;7.50;99.90
38500;DHT22;24269;51.894;4.622;2023-01-28T11:31:23;7.50;99.90
38500;DHT22;24269;51.894;4.622;2023-01-28T11:34:00;7.50;99.90
38500;DHT22;24269;51.894;4.622;2023-01-28T11:36:31;7.50;99.90
38500;DHT22;24269;51.894;4.622;2023-01-28T11:38:59;7.40;99.90
38500;DHT22;24269;51.894;4.622;2023-01-28T11:41:35;7.50;99.90
38500;DHT22;24269;51.894;4.622;2023-01-28T11:44:20;7.60;99.90
38500;DHT22;24269;51.894;4.622;2023-01-28T11:55:25;7.50;99.90
38500;DHT22;24269;51.894;4.622;2023-01-28T12:26:03;8.60;99.90
38500;DHT22;24269;51.894;4.622;2023-01-28T12:34:09;8.40;99.90
38500;DHT22;24269;51.894;4.622;2023-01-28T12:42:11;8.50;99.90
38500;DHT22;24269;51.894;4.622;2023-01-28T12:44:43;8.60;99.90
38500;DHT22;24269;51.894;4.622;2023-01-28T12:47:16;8.60;99.90
38500;DHT22;24269;51.894;4.622;2023-01-28T12:49:53;8.60;99.90
38500;DHT22;24269;51.894;4.622;2023-01-28T12:52:31;8.60;99.90
38500;DHT22;24269;51.894;4.622;2023-01-28T12:57:31;8.70;99.90
38500;DHT22;24269;51.894;4.622;2023-01-28T13:00:31;8.70;99.90
38500;DHT22;24269;51.894;4.622;2023-01-28T13:05:56;8.70;99.90
38500;DHT22;24269;51.894;4.622;2023-01-28T13:08:25;8.30;99.90
38500;DHT22;24269;51.894;4.622;2023-01-28T13:10:52;8.10;99.90
38500;DHT22;24269;51.894;4.622;2023-01-28T13:13:33;8.00;99.90
38500;DHT22;24269;51.894;4.622;2023-01-28T13:16:00;8.00;99.90
38500;DHT22;24269;51.894;4.622;2023-01-28T13:18:30;8.00;99.90
38500;DHT22;24269;51.894;4.622;2023-01-28T13:20:57;7.80;99.90
38500;DHT22;24269;51.894;4.622;2023-01-28T13:25:57;7.50;99.90
38500;DHT22;24269;51.894;4.622;2023-01-28T13:28:33;7.30;99.90
38500;DHT22;24269;51.894;4.622;2023-01-28T13:31:03;7.10;99.90
38500;DHT22;24269;51.894;4.622;2023-01-28T13:33:37;6.90;99.90
38500;DHT22;24269;51.894;4.622;2023-01-28T13:38:41;6.80;99.90
38500;DHT22;24269;51.894;4.622;2023-01-28T13:41:06;6.70;99.90
38500;DHT22;24269;51.894;4.622;2023-01-28T13:43:36;6.70;99.90
38500;DHT22;24269;51.894;4.622;2023-01-28T13:46:26;6.50;99.90
38500;DHT22;24269;51.894;4.622;2023-01-28T13:48:54;6.50;99.90
38500;DHT22;24269;51.894;4.622;2023-01-28T13:51:27;6.50;99.90
38500;DHT22;24269;51.894;4.622;2023-01-28T13:54:16;6.40;99.90
38500;DHT22;24269;51.894;4.622;2023-01-28T13:56:56;6.40;99.90
38500;DHT22;24269;51.894;4.622;2023-01-28T14:15:17;5.90;99.90
38500;DHT22;24269;51.894;4.622;2023-01-28T14:17:47;5.90;99.90
38500;DHT22;24269;51.894;4.622;2023-01-28T14:20:19;5.80;99.90
38500;DHT22;24269;51.894;4.622;2023-01-28T14:22:47;5.80;99.90
38500;DHT22;24269;51.894;4.622;2023-01-28T14:25:18;5.70;99.90
38500;DHT22;24269;51.894;4.622;2023-01-28T14:27:50;5.70;99.90
38500;DHT22;24269;51.894;4.622;2023-01-28T14:30:35;5.60;99.90
38500;DHT22;24269;51.894;4.622;2023-01-28T14:33:09;5.60;99.90
38500;DHT22;24269;51.894;4.622;2023-01-28T14:35:39;5.60;99.90
38500;DHT22;24269;51.894;4.622;2023-01-28T14:38:13;5.60;99.90
38500;DHT22;24269;51.894;4.622;2023-01-28T14:40:39;5.60;99.90
38500;DHT22;24269;51.894;4.622;2023-01-28T14:43:07;5.60;99.90
38500;DHT22;24269;51.894;4.622;2023-01-28T14:48:37;5.50;99.90
38500;DHT22;24269;51.894;4.622;2023-01-28T14:59:47;5.30;99.90
38500;DHT22;24269;51.894;4.622;2023-01-28T15:02:23;5.30;99.90
38500;DHT22;24269;51.894;4.622;2023-01-28T15:04:49;5.20;99.90
38500;DHT22;24269;51.894;4.622;2023-01-28T15:07:23;5.20;99.90
38500;DHT22;24269;51.894;4.622;2023-01-28T15:12:43;5.10;99.90
38500;DHT22;24269;51.894;4.622;2023-01-28T15:15:28;5.00;99.90
38500;DHT22;24269;51.894;4.622;2023-01-28T15:17:59;5.00;99.90
38500;DHT22;24269;51.894;4.622;2023-01-28T15:20:25;5.00;99.90
38500;DHT22;24269;51.894;4.622;2023-01-28T15:22:52;4.90;99.90
38500;DHT22;24269;51.894;4.622;2023-01-28T15:25:20;4.90;99.90
38500;DHT22;24269;51.894;4.622;2023-01-28T15:27:49;4.90;99.90
38500;DHT22;24269;51.894;4.622;2023-01-28T15:30:26;4.90;99.90
38500;DHT22;24269;51.894;4.622;2023-01-28T15:35:25;4.90;99.90
38500;DHT22;24269;51.894;4.622;2023-01-28T15:37:51;4.90;99.90
38500;DHT22;24269;51.894;4.622;2023-01-28T15:40:18;5.00;99.90
38500;DHT22;24269;51.894;4.622;2023-01-28T15:42:48;5.00;99.90
38500;DHT22;24269;51.894;4.622;2023-01-28T15:45:19;4.90;99.90
38500;DHT22;24269;51.894;4.622;2023-01-28T15:47:46;5.00;99.90
38500;DHT22;24269;51.894;4.622;2023-01-28T15:50:23;5.00;99.90
38500;DHT22;24269;51.894;4.622;2023-01-28T15:52:51;5.00;99.90
38500;DHT22;24269;51.894;4.622;2023-01-28T15:57:51;5.00;99.90
38500;DHT22;24269;51.894;4.622;2023-01-28T16:00:20;5.00;99.90
38500;DHT22;24269;51.894;4.622;2023-01-28T16:02:52;5.00;99.90
38500;DHT22;24269;51.894;4.622;2023-01-28T16:07:51;5.00;99.90
38500;DHT22;24269;51.894;4.622;2023-01-28T16:10:22;5.00;99.90
38500;DHT22;24269;51.894;4.622;2023-01-28T16:12:52;5.00;99.90
38500;DHT22;24269;51.894;4.622;2023-01-28T16:15:19;5.00;99.90
38500;DHT22;24269;51.894;4.622;2023-01-28T16:17:50;5.00;99.90
38500;DHT22;24269;51.894;4.622;2023-01-28T16:20:27;5.20;99.90
38500;DHT22;24269;51.894;4.622;2023-01-28T16:22:59;5.10;99.90
38500;DHT22;24269;51.894;4.622;2023-01-28T16:25:35;5.10;99.90
38500;DHT22;24269;51.894;4.622;2023-01-28T16:28:18;5.10;99.90
38500;DHT22;24269;51.894;4.622;2023-01-28T16:30:43;5.10;99.90
38500;DHT22;24269;51.894;4.622;2023-01-28T16:33:21;5.10;99.90
38500;DHT22;24269;51.894;4.622;2023-01-28T16:35:47;5.10;99.90
38500;DHT22;24269;51.894;4.622;2023-01-28T16:38:13;5.20;99.90
38500;DHT22;24269;51.894;4.622;2023-01-28T16:40:42;5.20;99.90
38500;DHT22;24269;51.894;4.622;2023-01-28T16:43:10;5.20;99.90
38500;DHT22;24269;51.894;4.622;2023-01-28T16:45:36;5.20;99.90
38500;DHT22;24269;51.894;4.622;2023-01-28T16:48:02;5.10;99.90
38500;DHT22;24269;51.894;4.622;2023-01-28T16:50:28;5.10;99.90
38500;DHT22;24269;51.894;4.622;2023-01-28T16:52:54;5.10;99.90
38500;DHT22;24269;51.894;4.622;2023-01-28T16:55:21;5.10;99.90
38500;DHT22;24269;51.894;4.622;2023-01-28T16:57:49;5.00;99.90
38500;DHT22;24269;51.894;4.622;2023-01-28T17:00:19;5.00;99.90
38500;DHT22;24269;51.894;4.622;2023-01-28T17:02:51;5.00;99.90
38500;DHT22;24269;51.894;4.622;2023-01-28T17:05:18;5.10;99.90
38500;DHT22;24269;51.894;4.622;2023-01-28T17:07:46;5.00;99.90
38500;DHT22;24269;51.894;4.622;2023-01-28T17:10:15;5.10;99.90
38500;DHT22;24269;51.894;4.622;2023-01-28T17:12:42;5.00;99.90
38500;DHT22;24269;51.894;4.622;2023-01-28T17:15:08;5.00;99.90
38500;DHT22;24269;51.894;4.622;2023-01-28T17:17:34;5.00;99.90
38500;DHT22;24269;51.894;4.622;2023-01-28T17:19:59;5.00;99.90
38500;DHT22;24269;51.894;4.622;2023-01-28T17:22:25;5.00;99.90
38500;DHT22;24269;51.894;4.622;2023-01-28T17:24:50;5.10;99.90
38500;DHT22;24269;51.894;4.622;2023-01-28T17:27:16;5.00;99.90
38500;DHT22;24269;51.894;4.622;2023-01-28T17:29:42;5.00;99.90
38500;DHT22;24269;51.894;4.622;2023-01-28T17:32:07;4.90;99.90
38500;DHT22;24269;51.894;4.622;2023-01-28T17:34:33;4.90;99.90
38500;DHT22;24269;51.894;4.622;2023-01-28T17:36:59;4.90;99.90
38500;DHT22;24269;51.894;4.622;2023-01-28T17:39:24;4.90;99.90
38500;DHT22;24269;51.894;4.622;2023-01-28T17:41:50;4.90;99.90
38500;DHT22;24269;51.894;4.622;2023-01-28T17:44:19;4.90;99.90
38500;DHT22;24269;51.894;4.622;2023-01-28T17:46:45;4.90;99.90
38500;DHT22;24269;51.894;4.622;2023-01-28T17:49:11;4.90;99.90
38500;DHT22;24269;51.894;4.622;2023-01-28T17:51:37;4.90;99.90
38500;DHT22;24269;51.894;4.622;2023-01-28T17:54:03;4.80;99.90
38500;DHT22;24269;51.894;4.622;2023-01-28T17:56:29;4.90;99.90
38500;DHT22;24269;51.894;4.622;2023-01-28T17:58:57;4.80;99.90
38500;DHT22;24269;51.894;4.622;2023-01-28T18:01:24;4.80;99.90
38500;DHT22;24269;51.894;4.622;2023-01-28T18:03:50;4.80;99.90
38500;DHT22;24269;51.894;4.622;2023-01-28T18:06:16;4.80;99.90
38500;DHT22;24269;51.894;4.622;2023-01-28T18:08:42;4.70;99.90